Christian Radich — LJLM — position and weather

sailwx.info

Track history (hours):
 
Tides and Currents Weather Stations Pressure Air Temp Water Temp Dewpoint Dewpoint Depression Visibility Wind Speed Wind Dir Waves Ship Positions

Christian Radich (Norway)

Last reported at 2019-Jun-16 23:27 UTC. Time now 2019-Jun-17 18:52 UTC.
Position N 59°54' E 010°45'.

Length 63 m; draft 5 m.

MMSI: 258373000.

Date/timePositionNaut miles runAvg speedWind from/ knotsBaromVisibWave heightAir tempDewpointWater temp
2019-Jun-16 23:27N 59°54' E 010°45'0 0.0
2019-Jun-16 23:00N 59°54' E 010°45'0 0.0
2019-Jun-16 22:30N 59°54' E 010°45'0 0.0
2019-Jun-16 21:58N 59°54' E 010°45'0 0.0
2019-Jun-16 21:28N 59°54' E 010°45'0 0.0
2019-Jun-16 20:58N 59°54' E 010°45'0 0.0
2019-Jun-16 20:29N 59°54' E 010°45'0 0.0
2019-Jun-16 19:59N 59°54' E 010°45'0 0.0
2019-Jun-16 19:29N 59°54' E 010°45'0 0.0
2019-Jun-16 19:00N 59°54' E 010°45'0 0.0
2019-Jun-16 18:30N 59°54' E 010°45'0 0.0
2019-Jun-16 18:00N 59°54' E 010°45'0 0.0
2019-Jun-16 17:28N 59°54' E 010°45'0 0.0
2019-Jun-16 16:58N 59°54' E 010°45'0 0.0
2019-Jun-16 16:28N 59°54' E 010°45'0 0.0
2019-Jun-16 15:59N 59°54' E 010°45'0 0.0
2019-Jun-16 15:29N 59°54' E 010°45'0 0.0
2019-Jun-16 14:59N 59°54' E 010°45'0 1.0
2019-Jun-16 14:30N 59°54' E 010°44'0 0.6
2019-Jun-16 13:58N 59°54' E 010°44'0 0.0
2019-Jun-16 13:29N 59°54' E 010°44'0 0.0
2019-Jun-16 12:59N 59°54' E 010°44'0 0.0
2019-Jun-16 12:29N 59°54' E 010°44'0 0.0
2019-Jun-16 12:00N 59°54' E 010°44'0 0.0
2019-Jun-16 11:30N 59°54' E 010°44'0 0.0
2019-Jun-16 11:00N 59°54' E 010°44'0 0.0
2019-Jun-16 10:28N 59°54' E 010°44'0 0.0
2019-Jun-16 09:58N 59°54' E 010°44'0 0.0
2019-Jun-16 09:28N 59°54' E 010°44'0 0.0
2019-Jun-16 08:59N 59°54' E 010°44'0 0.0
2019-Jun-16 08:29N 59°54' E 010°44'0 0.0
2019-Jun-16 07:59N 59°54' E 010°44'0 0.0
2019-Jun-16 07:30N 59°54' E 010°44'0 0.0
2019-Jun-16 07:00N 59°54' E 010°44'0 0.0
2019-Jun-16 06:30N 59°54' E 010°44'0 0.0
2019-Jun-16 05:58N 59°54' E 010°44'0 0.0
2019-Jun-16 05:28N 59°54' E 010°44'0 0.0
2019-Jun-16 04:58N 59°54' E 010°44'0 0.0
2019-Jun-16 04:29N 59°54' E 010°44'0 0.0
2019-Jun-16 03:59N 59°54' E 010°44'0 0.0
2019-Jun-16 03:29N 59°54' E 010°44'0 0.0
2019-Jun-16 03:00N 59°54' E 010°44'0 0.0
2019-Jun-16 02:30N 59°54' E 010°44'0 0.0
2019-Jun-16 02:00N 59°54' E 010°44'0 0.0
2019-Jun-16 01:28N 59°54' E 010°44'0 0.0
2019-Jun-16 00:58N 59°54' E 010°44'0 0.0
2019-Jun-16 00:28N 59°54' E 010°44'0 0.0
2019-Jun-15 23:59N 59°54' E 010°44'0 0.0
2019-Jun-15 23:29N 59°54' E 010°44'0 0.0
2019-Jun-15 22:59N 59°54' E 010°44'0 0.0
2019-Jun-15 22:30N 59°54' E 010°44'0 0.0
2019-Jun-15 22:00N 59°54' E 010°44'0 0.0
2019-Jun-15 21:30N 59°54' E 010°44'0 0.0
2019-Jun-15 20:58N 59°54' E 010°44'0 0.0
2019-Jun-15 20:28N 59°54' E 010°44'0 0.0
2019-Jun-15 19:58N 59°54' E 010°44'0 0.0
2019-Jun-15 19:29N 59°54' E 010°44'0 0.0
2019-Jun-15 18:59N 59°54' E 010°44'0 0.0
2019-Jun-15 18:29N 59°54' E 010°44'0 0.0
2019-Jun-15 18:00N 59°54' E 010°44'0 0.0
2019-Jun-15 17:30N 59°54' E 010°44'0 0.0
2019-Jun-15 17:00N 59°54' E 010°44'0 0.0
2019-Jun-15 16:28N 59°54' E 010°44'0 0.0
2019-Jun-15 15:58N 59°54' E 010°44'0 0.0
2019-Jun-15 15:28N 59°54' E 010°44'0 0.0
2019-Jun-15 14:59N 59°54' E 010°44'0 0.0
2019-Jun-15 14:29N 59°54' E 010°44'0 0.0
2019-Jun-15 13:59N 59°54' E 010°44'0 0.0
2019-Jun-15 13:27N 59°54' E 010°44'0 0.6
2019-Jun-15 13:00N 59°54' E 010°44'2 3.7
2019-Jun-15 12:30N 59°53' E 010°41'3 6.0
2019-Jun-15 12:00N 59°51' E 010°37'4 8.1
2019-Jun-15 11:30N 59°47' E 010°35'4 8.0
2019-Jun-15 11:00N 59°43' E 010°35'4 8.0
2019-Jun-15 10:30N 59°39' E 010°37'4 8.2
2019-Jun-15 10:00N 59°35' E 010°38'4 7.9
2019-Jun-15 09:30N 59°32' E 010°34'4 8.1
2019-Jun-15 09:00N 59°31' E 010°26'4 7.3
2019-Jun-15 08:30N 59°31' E 010°19'1 2.8
2019-Jun-15 08:00N 59°32' E 010°18'0 0.0
2019-Jun-15 07:30N 59°32' E 010°18'0 0.0
2019-Jun-15 07:00N 59°32' E 010°18'0 0.1
2019-Jun-15 06:30N 59°32' E 010°18'0 0.0
2019-Jun-15 05:58N 59°32' E 010°18'0 0.0
2019-Jun-15 05:28N 59°32' E 010°18'0 0.1
2019-Jun-15 04:59N 59°32' E 010°18'0 0.0
2019-Jun-15 04:29N 59°32' E 010°18'0 0.0
2019-Jun-15 03:59N 59°32' E 010°18'0 0.0
2019-Jun-15 03:30N 59°32' E 010°18'0 0.0
2019-Jun-15 03:00N 59°32' E 010°18'0 0.0
2019-Jun-15 02:30N 59°32' E 010°18'0 0.1
2019-Jun-15 02:01N 59°32' E 010°18'0 0.0
2019-Jun-15 01:28N 59°32' E 010°18'0 0.0
2019-Jun-15 00:58N 59°32' E 010°18'0 0.0
2019-Jun-15 00:29N 59°32' E 010°18'0 0.0
2019-Jun-14 23:59N 59°32' E 010°18'0 0.0
2019-Jun-14 23:29N 59°32' E 010°18'0 0.0
2019-Jun-14 23:00N 59°32' E 010°18'0 0.0
2019-Jun-14 22:30N 59°32' E 010°18'0 0.0
2019-Jun-14 22:00N 59°32' E 010°18'0 0.0
2019-Jun-14 21:28N 59°32' E 010°18'0 0.0
2019-Jun-14 20:58N 59°32' E 010°18'0 0.0
2019-Jun-14 20:28N 59°32' E 010°18'0 0.0
2019-Jun-14 19:59N 59°32' E 010°18'0 0.1
2019-Jun-14 19:29N 59°32' E 010°18'0 0.0
2019-Jun-14 18:59N 59°32' E 010°18'0 0.0
2019-Jun-14 18:27N 59°32' E 010°18'0 0.0
2019-Jun-14 18:00N 59°32' E 010°18'0 0.0
2019-Jun-14 17:30N 59°32' E 010°18'0 0.0
2019-Jun-14 16:58N 59°32' E 010°18'0 0.0
2019-Jun-14 16:28N 59°32' E 010°18'0 0.0
2019-Jun-14 15:58N 59°32' E 010°18'0 0.0
2019-Jun-14 15:30N 59°32' E 010°18'1 2.9
2019-Jun-14 15:00N 59°31' E 010°19'3 5.2
2019-Jun-14 14:30N 59°29' E 010°22'3 5.3
2019-Jun-14 14:00N 59°28' E 010°27'2 4.7
2019-Jun-14 13:30N 59°27' E 010°31'2 4.2
2019-Jun-14 13:00N 59°25' E 010°34'2 4.4
2019-Jun-14 12:31N 59°23' E 010°35'2 4.3
2019-Jun-14 12:00N 59°21' E 010°36'2 3.8
2019-Jun-14 11:30N 59°19' E 010°37'2 3.7
2019-Jun-14 11:00N 59°17' E 010°38'2 3.7
2019-Jun-14 10:30N 59°15' E 010°38'2 3.9
2019-Jun-14 10:00N 59°13' E 010°39'2 4.1
2019-Jun-14 09:30N 59°11' E 010°40'3 5.2
2019-Jun-14 09:00N 59°09' E 010°41'2 4.6
2019-Jun-14 08:31N 59°07' E 010°41'2 3.6
2019-Jun-14 08:00N 59°05' E 010°41'1 2.5
2019-Jun-14 07:30N 59°04' E 010°42'1 2.6
2019-Jun-14 07:00N 59°02' E 010°42'1 2.5
2019-Jun-14 06:31N 59°01' E 010°42'0 0.4
2019-Jun-14 06:00N 59°01' E 010°42'2 4.2
2019-Jun-14 05:30N 59°03' E 010°42'2 4.2
2019-Jun-14 05:00N 59°05' E 010°42'2 4.2
2019-Jun-14 04:30N 59°07' E 010°39'2 3.9
2019-Jun-14 04:00N 59°09' E 010°38'2 4.0
2019-Jun-14 03:31N 59°11' E 010°38'2 4.2
2019-Jun-14 03:00N 59°13' E 010°37'2 4.2
2019-Jun-14 02:31N 59°15' E 010°37'2 3.8
2019-Jun-14 02:00N 59°17' E 010°36'2 4.5
2019-Jun-14 01:30N 59°19' E 010°35'1 2.9
2019-Jun-14 01:00N 59°21' E 010°35'3 5.2
2019-Jun-14 00:30N 59°23' E 010°34'2 3.2
2019-Jun-14 00:00N 59°25' E 010°33'2 4.9
2019-Jun-13 23:30N 59°27' E 010°33'2 3.9
2019-Jun-13 23:00N 59°29' E 010°34'2 3.1
2019-Jun-13 22:30N 59°31' E 010°34'2 3.6
2019-Jun-13 22:00N 59°32' E 010°36'2 3.6
2019-Jun-13 21:30N 59°34' E 010°37'2 4.7
2019-Jun-13 21:01N 59°36' E 010°37'2 4.3
2019-Jun-13 20:31N 59°38' E 010°37'3 5.2
2019-Jun-13 20:00N 59°41' E 010°36'4 8.5
2019-Jun-13 19:30N 59°45' E 010°34'4 8.1
2019-Jun-13 19:01N 59°49' E 010°35'4 8.1
2019-Jun-13 18:30N 59°53' E 010°39'3 6.6
2019-Jun-13 18:00N 59°54' E 010°45'0 0.1
2019-Jun-13 17:29N 59°54' E 010°45'0 0.0
2019-Jun-13 16:59N 59°54' E 010°45'0 0.0
2019-Jun-13 16:30N 59°54' E 010°45'0 0.0
2019-Jun-13 16:00N 59°54' E 010°45'0 0.0
2019-Jun-13 15:28N 59°54' E 010°45'0 0.0
2019-Jun-13 14:58N 59°54' E 010°45'0 0.0
2019-Jun-13 14:28N 59°54' E 010°45'0 0.0
2019-Jun-13 13:59N 59°54' E 010°45'0 0.0
2019-Jun-13 13:29N 59°54' E 010°45'0 0.0
2019-Jun-13 12:59N 59°54' E 010°45'0 0.0
2019-Jun-13 12:27N 59°54' E 010°45'0 0.0
2019-Jun-13 12:00N 59°54' E 010°45'0 0.0
2019-Jun-13 11:30N 59°54' E 010°45'0 0.0
2019-Jun-13 10:58N 59°54' E 010°45'0 0.0
2019-Jun-13 10:28N 59°54' E 010°45'0 0.0
2019-Jun-13 09:58N 59°54' E 010°45'0 0.0
2019-Jun-13 09:29N 59°54' E 010°45'0 0.0
2019-Jun-13 08:59N 59°54' E 010°45'0 0.0
2019-Jun-13 08:29N 59°54' E 010°45'0 0.0
2019-Jun-13 08:00N 59°54' E 010°45'0 0.0
2019-Jun-13 07:30N 59°54' E 010°45'0 0.0
2019-Jun-13 07:00N 59°54' E 010°45'0 0.0
2019-Jun-13 06:28N 59°54' E 010°45'0 0.0
2019-Jun-13 05:58N 59°54' E 010°45'0 0.0
2019-Jun-13 05:28N 59°54' E 010°45'0 0.0
2019-Jun-13 04:59N 59°54' E 010°45'0 0.0
2019-Jun-13 04:29N 59°54' E 010°45'0 0.0
2019-Jun-13 03:59N 59°54' E 010°45'0 0.0
2019-Jun-13 03:27N 59°54' E 010°45'0 0.0
2019-Jun-13 03:00N 59°54' E 010°45'0 0.0
2019-Jun-13 02:30N 59°54' E 010°45'0 0.0
2019-Jun-13 01:58N 59°54' E 010°45'0 0.0
2019-Jun-13 01:28N 59°54' E 010°45'0 0.0
2019-Jun-13 00:58N 59°54' E 010°45'0 0.0
2019-Jun-13 00:29N 59°54' E 010°45'0 0.0
2019-Jun-12 23:59N 59°54' E 010°45'0 0.0
2019-Jun-12 23:29N 59°54' E 010°45'0 0.0
2019-Jun-12 22:57N 59°54' E 010°45'0 0.0
2019-Jun-12 22:30N 59°54' E 010°45'0 0.0
2019-Jun-12 22:00N 59°54' E 010°45'0 0.0
2019-Jun-12 21:28N 59°54' E 010°45'0 0.0
2019-Jun-12 20:58N 59°54' E 010°45'0 0.0
2019-Jun-12 20:28N 59°54' E 010°45'0 0.0
2019-Jun-12 20:00N 59°54' E 010°45'1 2.4
2019-Jun-12 19:30N 59°53' E 010°43'1 2.8
2019-Jun-12 19:00N 59°53' E 010°41'2 3.6
2019-Jun-12 18:30N 59°54' E 010°39'1 2.4
2019-Jun-12 18:00N 59°53' E 010°40'1 2.8
2019-Jun-12 17:29N 59°52' E 010°41'1 2.6
2019-Jun-12 17:00N 59°50' E 010°42'1 3.0
2019-Jun-12 16:31N 59°51' E 010°45'2 4.2
2019-Jun-12 16:00N 59°53' E 010°45'1 2.4
2019-Jun-12 15:30N 59°54' E 010°45'0 0.2
2019-Jun-12 14:58N 59°54' E 010°45'0 0.0
2019-Jun-12 14:28N 59°54' E 010°45'0 0.0
2019-Jun-12 13:58N 59°54' E 010°45'0 0.0
2019-Jun-12 13:29N 59°54' E 010°45'0 0.0
2019-Jun-12 12:59N 59°54' E 010°45'0 0.0
2019-Jun-12 12:29N 59°54' E 010°45'0 0.0
2019-Jun-12 12:00N 59°54' E 010°45'0 0.0
2019-Jun-12 11:29N 59°54' E 010°45'0 0.0
2019-Jun-12 10:59N 59°54' E 010°45'0 0.0
2019-Jun-12 10:30N 59°54' E 010°45'0 0.0
2019-Jun-12 10:00N 59°54' E 010°45'0 0.0
2019-Jun-12 09:30N 59°54' E 010°45'0 0.0
2019-Jun-12 08:59N 59°54' E 010°45'0 0.0
2019-Jun-12 08:30N 59°54' E 010°45'0 0.0
2019-Jun-12 08:00N 59°54' E 010°45'0 0.0
2019-Jun-12 07:30N 59°54' E 010°45'0 0.0
2019-Jun-12 07:00N 59°54' E 010°45'0 0.0
2019-Jun-12 06:30N 59°54' E 010°45'0 0.0
2019-Jun-12 05:59N 59°54' E 010°45'0 0.0
2019-Jun-12 05:29N 59°54' E 010°45'0 0.0
2019-Jun-12 05:00N 59°54' E 010°45'0 0.0
2019-Jun-12 04:30N 59°54' E 010°45'0 0.0
2019-Jun-12 03:58N 59°54' E 010°45'0 0.0
2019-Jun-12 03:30N 59°54' E 010°45'0 0.0
2019-Jun-12 03:00N 59°54' E 010°45'0 0.0
2019-Jun-12 02:30N 59°54' E 010°45'0 0.0
2019-Jun-12 01:30N 59°54' E 010°45'0 0.0
2019-Jun-12 01:00N 59°54' E 010°45'0 0.0
2019-Jun-12 00:29N 59°54' E 010°45'0 0.0
2019-Jun-11 23:59N 59°54' E 010°45'0 0.0
2019-Jun-11 23:30N 59°54' E 010°45'0 0.0
2019-Jun-11 23:00N 59°54' E 010°45'0 0.0
2019-Jun-11 22:30N 59°54' E 010°45'0 0.0
2019-Jun-11 22:00N 59°54' E 010°45'0 0.0
2019-Jun-11 21:30N 59°54' E 010°45'0 0.0
2019-Jun-11 21:00N 59°54' E 010°45'0 0.0
2019-Jun-11 20:30N 59°54' E 010°45'0 0.2
2019-Jun-11 20:00N 59°54' E 010°45'1 2.8
2019-Jun-11 19:30N 59°53' E 010°44'1 2.4
2019-Jun-11 19:00N 59°52' E 010°44'1 2.1
2019-Jun-11 18:30N 59°51' E 010°45'2 3.3
2019-Jun-11 17:59N 59°51' E 010°42'2 3.2
2019-Jun-11 17:30N 59°52' E 010°40'1 2.0
2019-Jun-11 17:00N 59°52' E 010°39'1 2.0
2019-Jun-11 16:30N 59°52' E 010°37'1 1.5
2019-Jun-11 16:00N 59°52' E 010°36'0 0.0
2019-Jun-11 15:30N 59°52' E 010°36'0 0.2
2019-Jun-11 15:00N 59°52' E 010°36'1 2.4
2019-Jun-11 14:30N 59°53' E 010°38'3 5.7
2019-Jun-11 14:00N 59°54' E 010°43'1 1.9
2019-Jun-11 13:30N 59°54' E 010°45'0 0.0
2019-Jun-11 13:00N 59°54' E 010°45'0 0.0
2019-Jun-11 12:30N 59°54' E 010°45'0 0.2
2019-Jun-11 12:00N 59°54' E 010°45'1 2.0
2019-Jun-11 11:30N 59°54' E 010°43'1 2.2
2019-Jun-11 11:00N 59°54' E 010°45'0 0.0
2019-Jun-11 10:30N 59°54' E 010°45'0 0.0
2019-Jun-11 09:59N 59°54' E 010°45'0 0.0
2019-Jun-11 09:30N 59°54' E 010°45'0 0.0
2019-Jun-11 09:00N 59°54' E 010°45'0 0.0
2019-Jun-11 08:30N 59°54' E 010°45'0 0.0
2019-Jun-11 08:00N 59°54' E 010°45'0 0.0
2019-Jun-11 07:28N 59°54' E 010°45'0 0.0
2019-Jun-11 06:58N 59°54' E 010°45'0 0.0
2019-Jun-11 06:30N 59°54' E 010°45'0 0.0
2019-Jun-11 06:00N 59°54' E 010°45'0 0.0
2019-Jun-11 05:30N 59°54' E 010°45'0 0.0
2019-Jun-11 05:00N 59°54' E 010°45'0 0.0
2019-Jun-11 04:30N 59°54' E 010°45'0 0.0
2019-Jun-11 04:00N 59°54' E 010°45'0 0.0
2019-Jun-11 03:30N 59°54' E 010°45'0 0.0
2019-Jun-11 02:58N 59°54' E 010°45'0 0.0
2019-Jun-11 02:30N 59°54' E 010°45'0 0.0
2019-Jun-11 02:00N 59°54' E 010°45'0 0.0
2019-Jun-11 01:30N 59°54' E 010°45'0 0.0
2019-Jun-11 01:00N 59°54' E 010°45'0 0.0
2019-Jun-11 00:30N 59°54' E 010°45'0 0.0
2019-Jun-10 23:59N 59°54' E 010°45'0 0.0
2019-Jun-10 23:30N 59°54' E 010°45'0 0.0
2019-Jun-10 23:00N 59°54' E 010°45'0 0.0
2019-Jun-10 22:30N 59°54' E 010°45'0 0.0
2019-Jun-10 22:00N 59°54' E 010°45'0 0.0
2019-Jun-10 21:30N 59°54' E 010°45'0 0.0
2019-Jun-10 21:00N 59°54' E 010°45'0 0.0
2019-Jun-10 20:30N 59°54' E 010°45'0 0.0
2019-Jun-10 20:00N 59°54' E 010°45'0 0.0
2019-Jun-10 19:30N 59°54' E 010°45'0 0.0
2019-Jun-10 19:00N 59°54' E 010°45'0 0.0
2019-Jun-10 18:30N 59°54' E 010°45'0 0.0
2019-Jun-10 18:00N 59°54' E 010°45'0 0.0
2019-Jun-10 17:30N 59°54' E 010°45'0 0.0
2019-Jun-10 17:00N 59°54' E 010°45'0 0.0
2019-Jun-10 16:30N 59°54' E 010°45'0 0.0
2019-Jun-10 16:00N 59°54' E 010°45'0 0.0
2019-Jun-10 15:30N 59°54' E 010°45'0 0.0
2019-Jun-10 15:00N 59°54' E 010°45'0 0.0
2019-Jun-10 14:29N 59°54' E 010°45'0 0.0
2019-Jun-10 13:59N 59°54' E 010°45'0 0.0
2019-Jun-10 13:30N 59°54' E 010°45'0 0.0
2019-Jun-10 13:00N 59°54' E 010°45'0 0.0
2019-Jun-10 12:30N 59°54' E 010°45'0 0.0
2019-Jun-10 12:00N 59°54' E 010°45'0 0.0
2019-Jun-10 11:30N 59°54' E 010°45'0 0.0
2019-Jun-10 11:00N 59°54' E 010°45'0 0.0
2019-Jun-10 10:30N 59°54' E 010°45'0 0.0
2019-Jun-10 10:00N 59°54' E 010°45'0 0.0
2019-Jun-10 09:30N 59°54' E 010°45'0 0.0
2019-Jun-10 08:58N 59°54' E 010°45'0 0.0
2019-Jun-10 08:29N 59°54' E 010°45'0 0.0
2019-Jun-10 08:00N 59°54' E 010°45'0 0.0
2019-Jun-10 07:29N 59°54' E 010°45'0 0.0
2019-Jun-10 06:58N 59°54' E 010°45'0 0.0
2019-Jun-10 06:30N 59°54' E 010°45'0 0.0
2019-Jun-10 06:00N 59°54' E 010°45'0 0.0
2019-Jun-10 05:30N 59°54' E 010°45'0 0.0
2019-Jun-10 05:00N 59°54' E 010°45'0 0.0
2019-Jun-10 04:30N 59°54' E 010°45'0 0.0
2019-Jun-10 04:00N 59°54' E 010°45'0 0.0
2019-Jun-10 03:30N 59°54' E 010°45'0 0.0
2019-Jun-10 03:00N 59°54' E 010°45'0 0.0
2019-Jun-10 02:28N 59°54' E 010°45'0 0.0
2019-Jun-10 02:00N 59°54' E 010°45'0 0.0
2019-Jun-10 01:30N 59°54' E 010°45'0 0.0
2019-Jun-10 00:59N 59°54' E 010°45'0 0.0
2019-Jun-10 00:30N 59°54' E 010°45'0 0.0
2019-Jun-10 00:00N 59°54' E 010°45'0 0.0
2019-Jun-09 23:30N 59°54' E 010°45'0 0.0
2019-Jun-09 23:00N 59°54' E 010°45'0 0.0
2019-Jun-09 22:30N 59°54' E 010°45'0 0.0
2019-Jun-09 22:00N 59°54' E 010°45'0 0.0
2019-Jun-09 21:30N 59°54' E 010°45'0 0.0
2019-Jun-09 21:00N 59°54' E 010°45'0 0.0
2019-Jun-09 20:30N 59°54' E 010°45'0 0.0
2019-Jun-09 20:00N 59°54' E 010°45'0 0.0
2019-Jun-09 19:30N 59°54' E 010°45'0 0.0
2019-Jun-09 19:00N 59°54' E 010°45'0 0.0
2019-Jun-09 18:30N 59°54' E 010°45'0 0.0
2019-Jun-09 18:00N 59°54' E 010°45'0 0.0
2019-Jun-09 17:29N 59°54' E 010°45'0 0.0
2019-Jun-09 16:58N 59°54' E 010°45'0 0.0
2019-Jun-09 16:30N 59°54' E 010°45'0 0.0
2019-Jun-09 16:00N 59°54' E 010°45'0 0.0
2019-Jun-09 15:28N 59°54' E 010°45'0 0.0
2019-Jun-09 15:00N 59°54' E 010°45'0 0.0
2019-Jun-09 14:29N 59°54' E 010°45'0 0.0
2019-Jun-09 14:00N 59°54' E 010°45'0 0.0
2019-Jun-09 13:30N 59°54' E 010°45'0 0.5
2019-Jun-09 12:59N 59°54' E 010°45'2 4.2
2019-Jun-09 12:30N 59°53' E 010°41'2 4.0
2019-Jun-09 12:00N 59°51' E 010°42'1 1.3
2019-Jun-09 11:30N 59°52' E 010°43'1 2.9
2019-Jun-09 11:00N 59°53' E 010°44'1 3.1
2019-Jun-09 10:31N 59°54' E 010°45'0 0.1
2019-Jun-09 09:58N 59°54' E 010°45'0 0.0
2019-Jun-09 09:29N 59°54' E 010°45'0 0.0
2019-Jun-09 08:59N 59°54' E 010°45'0 0.0
2019-Jun-09 08:29N 59°54' E 010°45'0 0.0
2019-Jun-09 08:00N 59°54' E 010°45'0 0.0
2019-Jun-09 07:30N 59°54' E 010°45'0 0.0
2019-Jun-09 07:00N 59°54' E 010°45'0 0.0
2019-Jun-09 06:30N 59°54' E 010°45'0 0.0
2019-Jun-09 06:00N 59°54' E 010°45'0 0.0
2019-Jun-09 05:30N 59°54' E 010°45'0 0.0
2019-Jun-09 05:00N 59°54' E 010°45'0 0.0
2019-Jun-09 04:00N 59°54' E 010°45'0 0.0
2019-Jun-09 03:30N 59°54' E 010°45'0 0.0
2019-Jun-09 03:00N 59°54' E 010°45'0 0.0
2019-Jun-09 02:30N 59°54' E 010°45'0 0.0
2019-Jun-09 02:00N 59°54' E 010°45'0 0.0
2019-Jun-09 01:30N 59°54' E 010°45'0 0.0
2019-Jun-09 01:00N 59°54' E 010°45'0 0.0
2019-Jun-09 00:29N 59°54' E 010°45'0 0.0
2019-Jun-09 00:00N 59°54' E 010°45'0 0.0
2019-Jun-08 23:29N 59°54' E 010°45'0 0.0
2019-Jun-08 23:00N 59°54' E 010°45'0 0.0
2019-Jun-08 22:30N 59°54' E 010°45'0 0.0
2019-Jun-08 22:00N 59°54' E 010°45'0 0.0
2019-Jun-08 21:30N 59°54' E 010°45'0 0.0
2019-Jun-08 21:00N 59°54' E 010°45'0 0.0
2019-Jun-08 20:30N 59°54' E 010°45'0 0.0
2019-Jun-08 20:00N 59°54' E 010°45'2 3.5
2019-Jun-08 19:30N 59°54' E 010°42'2 3.7
2019-Jun-08 19:00N 59°52' E 010°41'2 3.9
2019-Jun-08 18:30N 59°50' E 010°42'1 2.8
2019-Jun-08 17:58N 59°49' E 010°44'2 3.9
2019-Jun-08 17:29N 59°51' E 010°46'2 3.2
2019-Jun-08 16:59N 59°52' E 010°44'2 3.6
2019-Jun-08 16:30N 59°54' E 010°45'0 0.5
2019-Jun-08 15:58N 59°54' E 010°45'0 0.0
2019-Jun-08 15:29N 59°54' E 010°45'0 0.0
2019-Jun-08 14:59N 59°54' E 010°45'0 0.0
2019-Jun-08 14:29N 59°54' E 010°45'0 0.0
2019-Jun-08 14:00N 59°54' E 010°45'0 0.0
2019-Jun-08 13:30N 59°54' E 010°45'0 0.0
2019-Jun-08 13:00N 59°54' E 010°45'0 0.0
2019-Jun-08 12:28N 59°54' E 010°45'0 0.0
2019-Jun-08 11:58N 59°54' E 010°45'0 0.0
2019-Jun-08 11:28N 59°54' E 010°45'0 0.0
2019-Jun-08 10:59N 59°54' E 010°45'0 0.0
2019-Jun-08 10:29N 59°54' E 010°45'0 0.0
2019-Jun-08 09:59N 59°54' E 010°45'0 0.0
2019-Jun-08 09:30N 59°54' E 010°45'0 0.0
2019-Jun-08 09:00N 59°54' E 010°45'0 0.0
2019-Jun-08 08:30N 59°54' E 010°45'0 0.0
2019-Jun-08 07:58N 59°54' E 010°45'0 0.0
2019-Jun-08 07:28N 59°54' E 010°45'0 0.0
2019-Jun-08 06:58N 59°54' E 010°45'0 0.0
2019-Jun-08 06:29N 59°54' E 010°45'0 0.0
2019-Jun-08 05:59N 59°54' E 010°45'0 0.0
2019-Jun-08 05:29N 59°54' E 010°45'0 0.0
2019-Jun-08 05:00N 59°54' E 010°45'0 0.0
2019-Jun-08 04:30N 59°54' E 010°45'0 0.0
2019-Jun-08 04:00N 59°54' E 010°45'0 0.0
2019-Jun-08 03:28N 59°54' E 010°45'0 0.0
2019-Jun-08 02:58N 59°54' E 010°45'0 0.0
2019-Jun-08 02:28N 59°54' E 010°45'0 0.0
2019-Jun-08 01:59N 59°54' E 010°45'0 0.0
2019-Jun-08 01:29N 59°54' E 010°45'0 0.0
2019-Jun-08 00:59N 59°54' E 010°45'0 0.0
2019-Jun-08 00:30N 59°54' E 010°45'0 0.0
2019-Jun-08 00:00N 59°54' E 010°45'0 0.0
2019-Jun-07 23:30N 59°54' E 010°45'0 0.0
2019-Jun-07 22:58N 59°54' E 010°45'0 0.0
2019-Jun-07 22:28N 59°54' E 010°45'0 0.0
2019-Jun-07 21:58N 59°54' E 010°45'0 0.0
2019-Jun-07 21:29N 59°54' E 010°45'0 0.0
2019-Jun-07 20:59N 59°54' E 010°45'0 0.0
2019-Jun-07 20:29N 59°54' E 010°45'0 0.7
2019-Jun-07 20:00N 59°54' E 010°45'2 3.8
2019-Jun-07 19:31N 59°53' E 010°41'1 2.1
2019-Jun-07 19:00N 59°52' E 010°41'3 5.1
2019-Jun-07 18:30N 59°50' E 010°43'1 2.8
2019-Jun-07 18:00N 59°50' E 010°46'1 2.5
2019-Jun-07 17:30N 59°51' E 010°45'1 2.7
2019-Jun-07 17:00N 59°53' E 010°45'1 2.4
2019-Jun-07 16:30N 59°54' E 010°45'0 0.6
2019-Jun-07 16:00N 59°54' E 010°45'0 0.0
2019-Jun-07 15:30N 59°54' E 010°45'0 0.0
2019-Jun-07 15:00N 59°54' E 010°45'0 0.0
2019-Jun-07 14:28N 59°54' E 010°45'0 0.0
2019-Jun-07 13:58N 59°54' E 010°45'0 0.0
2019-Jun-07 13:28N 59°54' E 010°45'0 0.0
2019-Jun-07 12:59N 59°54' E 010°45'0 0.0
2019-Jun-07 12:29N 59°54' E 010°45'0 0.0
2019-Jun-07 11:59N 59°54' E 010°45'0 0.0
2019-Jun-07 11:30N 59°54' E 010°45'0 0.0
2019-Jun-07 11:00N 59°54' E 010°45'0 0.0
2019-Jun-07 10:30N 59°54' E 010°45'0 0.0
2019-Jun-07 09:58N 59°54' E 010°45'0 0.0
2019-Jun-07 09:28N 59°54' E 010°45'0 0.0
2019-Jun-07 08:58N 59°54' E 010°45'0 1.0
2019-Jun-07 08:29N 59°54' E 010°44'0 0.0
2019-Jun-07 08:00N 59°54' E 010°44'0 0.0
2019-Jun-07 07:30N 59°54' E 010°44'0 0.0
2019-Jun-07 07:00N 59°54' E 010°44'0 0.0
2019-Jun-07 06:28N 59°54' E 010°44'0 0.0
2019-Jun-07 05:58N 59°54' E 010°44'0 0.0
2019-Jun-07 05:28N 59°54' E 010°44'0 0.0
2019-Jun-07 04:59N 59°54' E 010°44'0 0.0
2019-Jun-07 04:29N 59°54' E 010°44'0 0.0
2019-Jun-07 03:59N 59°54' E 010°44'0 0.0
2019-Jun-07 03:30N 59°54' E 010°44'0 0.0
2019-Jun-07 02:57N 59°54' E 010°44'0 0.0
2019-Jun-07 02:30N 59°54' E 010°44'0 0.0
2019-Jun-07 01:58N 59°54' E 010°44'0 0.0
2019-Jun-07 01:28N 59°54' E 010°44'0 0.0
2019-Jun-07 00:58N 59°54' E 010°44'0 0.0
2019-Jun-07 00:29N 59°54' E 010°44'0 0.0
2019-Jun-06 23:59N 59°54' E 010°44'0 0.0
2019-Jun-06 23:29N 59°54' E 010°44'0 0.0
2019-Jun-06 23:00N 59°54' E 010°44'  
Track history (hours):
 
Tides and Currents Weather Stations Pressure Air Temp Water Temp Dewpoint Dewpoint Depression Visibility Wind Speed Wind Dir Waves Ship Positions

Christian Radich (Norway)

Last reported at 2019-Jun-16 23:27 UTC. Time now 2019-Jun-17 18:52 UTC.
Position N 59°54' E 010°45'.

Length 63 m; draft 5 m.

MMSI: 258373000.

Date/timePositionNaut miles runAvg speedWind from/ knotsBaromVisibWave heightAir tempDewpointWater temp
2019-Jun-16 23:27N 59°54' E 010°45'0 0.0
2019-Jun-16 23:00N 59°54' E 010°45'0 0.0
2019-Jun-16 22:30N 59°54' E 010°45'0 0.0
2019-Jun-16 21:58N 59°54' E 010°45'0 0.0
2019-Jun-16 21:28N 59°54' E 010°45'0 0.0
2019-Jun-16 20:58N 59°54' E 010°45'0 0.0
2019-Jun-16 20:29N 59°54' E 010°45'0 0.0
2019-Jun-16 19:59N 59°54' E 010°45'0 0.0
2019-Jun-16 19:29N 59°54' E 010°45'0 0.0
2019-Jun-16 19:00N 59°54' E 010°45'0 0.0
2019-Jun-16 18:30N 59°54' E 010°45'0 0.0
2019-Jun-16 18:00N 59°54' E 010°45'0 0.0
2019-Jun-16 17:28N 59°54' E 010°45'0 0.0
2019-Jun-16 16:58N 59°54' E 010°45'0 0.0
2019-Jun-16 16:28N 59°54' E 010°45'0 0.0
2019-Jun-16 15:59N 59°54' E 010°45'0 0.0
2019-Jun-16 15:29N 59°54' E 010°45'0 0.0
2019-Jun-16 14:59N 59°54' E 010°45'0 1.0
2019-Jun-16 14:30N 59°54' E 010°44'0 0.6
2019-Jun-16 13:58N 59°54' E 010°44'0 0.0
2019-Jun-16 13:29N 59°54' E 010°44'0 0.0
2019-Jun-16 12:59N 59°54' E 010°44'0 0.0
2019-Jun-16 12:29N 59°54' E 010°44'0 0.0
2019-Jun-16 12:00N 59°54' E 010°44'0 0.0
2019-Jun-16 11:30N 59°54' E 010°44'0 0.0
2019-Jun-16 11:00N 59°54' E 010°44'0 0.0
2019-Jun-16 10:28N 59°54' E 010°44'0 0.0
2019-Jun-16 09:58N 59°54' E 010°44'0 0.0
2019-Jun-16 09:28N 59°54' E 010°44'0 0.0
2019-Jun-16 08:59N 59°54' E 010°44'0 0.0
2019-Jun-16 08:29N 59°54' E 010°44'0 0.0
2019-Jun-16 07:59N 59°54' E 010°44'0 0.0
2019-Jun-16 07:30N 59°54' E 010°44'0 0.0
2019-Jun-16 07:00N 59°54' E 010°44'0 0.0
2019-Jun-16 06:30N 59°54' E 010°44'0 0.0
2019-Jun-16 05:58N 59°54' E 010°44'0 0.0
2019-Jun-16 05:28N 59°54' E 010°44'0 0.0
2019-Jun-16 04:58N 59°54' E 010°44'0 0.0
2019-Jun-16 04:29N 59°54' E 010°44'0 0.0
2019-Jun-16 03:59N 59°54' E 010°44'0 0.0
2019-Jun-16 03:29N 59°54' E 010°44'0 0.0
2019-Jun-16 03:00N 59°54' E 010°44'0 0.0
2019-Jun-16 02:30N 59°54' E 010°44'0 0.0
2019-Jun-16 02:00N 59°54' E 010°44'0 0.0
2019-Jun-16 01:28N 59°54' E 010°44'0 0.0
2019-Jun-16 00:58N 59°54' E 010°44'0 0.0
2019-Jun-16 00:28N 59°54' E 010°44'0 0.0
2019-Jun-15 23:59N 59°54' E 010°44'0 0.0
2019-Jun-15 23:29N 59°54' E 010°44'0 0.0
2019-Jun-15 22:59N 59°54' E 010°44'0 0.0
2019-Jun-15 22:30N 59°54' E 010°44'0 0.0
2019-Jun-15 22:00N 59°54' E 010°44'0 0.0
2019-Jun-15 21:30N 59°54' E 010°44'0 0.0
2019-Jun-15 20:58N 59°54' E 010°44'0 0.0
2019-Jun-15 20:28N 59°54' E 010°44'0 0.0
2019-Jun-15 19:58N 59°54' E 010°44'0 0.0
2019-Jun-15 19:29N 59°54' E 010°44'0 0.0
2019-Jun-15 18:59N 59°54' E 010°44'0 0.0
2019-Jun-15 18:29N 59°54' E 010°44'0 0.0
2019-Jun-15 18:00N 59°54' E 010°44'0 0.0
2019-Jun-15 17:30N 59°54' E 010°44'0 0.0
2019-Jun-15 17:00N 59°54' E 010°44'0 0.0
2019-Jun-15 16:28N 59°54' E 010°44'0 0.0
2019-Jun-15 15:58N 59°54' E 010°44'0 0.0
2019-Jun-15 15:28N 59°54' E 010°44'0 0.0
2019-Jun-15 14:59N 59°54' E 010°44'0 0.0
2019-Jun-15 14:29N 59°54' E 010°44'0 0.0
2019-Jun-15 13:59N 59°54' E 010°44'0 0.0
2019-Jun-15 13:27N 59°54' E 010°44'0 0.6
2019-Jun-15 13:00N 59°54' E 010°44'2 3.7
2019-Jun-15 12:30N 59°53' E 010°41'3 6.0
2019-Jun-15 12:00N 59°51' E 010°37'4 8.1
2019-Jun-15 11:30N 59°47' E 010°35'4 8.0
2019-Jun-15 11:00N 59°43' E 010°35'4 8.0
2019-Jun-15 10:30N 59°39' E 010°37'4 8.2
2019-Jun-15 10:00N 59°35' E 010°38'4 7.9
2019-Jun-15 09:30N 59°32' E 010°34'4 8.1
2019-Jun-15 09:00N 59°31' E 010°26'4 7.3
2019-Jun-15 08:30N 59°31' E 010°19'1 2.8
2019-Jun-15 08:00N 59°32' E 010°18'0 0.0
2019-Jun-15 07:30N 59°32' E 010°18'0 0.0
2019-Jun-15 07:00N 59°32' E 010°18'0 0.1
2019-Jun-15 06:30N 59°32' E 010°18'0 0.0
2019-Jun-15 05:58N 59°32' E 010°18'0 0.0
2019-Jun-15 05:28N 59°32' E 010°18'0 0.1
2019-Jun-15 04:59N 59°32' E 010°18'0 0.0
2019-Jun-15 04:29N 59°32' E 010°18'0 0.0
2019-Jun-15 03:59N 59°32' E 010°18'0 0.0
2019-Jun-15 03:30N 59°32' E 010°18'0 0.0
2019-Jun-15 03:00N 59°32' E 010°18'0 0.0
2019-Jun-15 02:30N 59°32' E 010°18'0 0.1
2019-Jun-15 02:01N 59°32' E 010°18'0 0.0
2019-Jun-15 01:28N 59°32' E 010°18'0 0.0
2019-Jun-15 00:58N 59°32' E 010°18'0 0.0
2019-Jun-15 00:29N 59°32' E 010°18'0 0.0
2019-Jun-14 23:59N 59°32' E 010°18'0 0.0
2019-Jun-14 23:29N 59°32' E 010°18'0 0.0
2019-Jun-14 23:00N 59°32' E 010°18'0 0.0
2019-Jun-14 22:30N 59°32' E 010°18'0 0.0
2019-Jun-14 22:00N 59°32' E 010°18'0 0.0
2019-Jun-14 21:28N 59°32' E 010°18'0 0.0
2019-Jun-14 20:58N 59°32' E 010°18'0 0.0
2019-Jun-14 20:28N 59°32' E 010°18'0 0.0
2019-Jun-14 19:59N 59°32' E 010°18'0 0.1
2019-Jun-14 19:29N 59°32' E 010°18'0 0.0
2019-Jun-14 18:59N 59°32' E 010°18'0 0.0
2019-Jun-14 18:27N 59°32' E 010°18'0 0.0
2019-Jun-14 18:00N 59°32' E 010°18'0 0.0
2019-Jun-14 17:30N 59°32' E 010°18'0 0.0
2019-Jun-14 16:58N 59°32' E 010°18'0 0.0
2019-Jun-14 16:28N 59°32' E 010°18'0 0.0
2019-Jun-14 15:58N 59°32' E 010°18'0 0.0
2019-Jun-14 15:30N 59°32' E 010°18'1 2.9
2019-Jun-14 15:00N 59°31' E 010°19'3 5.2
2019-Jun-14 14:30N 59°29' E 010°22'3 5.3
2019-Jun-14 14:00N 59°28' E 010°27'2 4.7
2019-Jun-14 13:30N 59°27' E 010°31'2 4.2
2019-Jun-14 13:00N 59°25' E 010°34'2 4.4
2019-Jun-14 12:31N 59°23' E 010°35'2 4.3
2019-Jun-14 12:00N 59°21' E 010°36'2 3.8
2019-Jun-14 11:30N 59°19' E 010°37'2 3.7
2019-Jun-14 11:00N 59°17' E 010°38'2 3.7
2019-Jun-14 10:30N 59°15' E 010°38'2 3.9
2019-Jun-14 10:00N 59°13' E 010°39'2 4.1
2019-Jun-14 09:30N 59°11' E 010°40'3 5.2
2019-Jun-14 09:00N 59°09' E 010°41'2 4.6
2019-Jun-14 08:31N 59°07' E 010°41'2 3.6
2019-Jun-14 08:00N 59°05' E 010°41'1 2.5
2019-Jun-14 07:30N 59°04' E 010°42'1 2.6
2019-Jun-14 07:00N 59°02' E 010°42'1 2.5
2019-Jun-14 06:31N 59°01' E 010°42'0 0.4
2019-Jun-14 06:00N 59°01' E 010°42'2 4.2
2019-Jun-14 05:30N 59°03' E 010°42'2 4.2
2019-Jun-14 05:00N 59°05' E 010°42'2 4.2
2019-Jun-14 04:30N 59°07' E 010°39'2 3.9
2019-Jun-14 04:00N 59°09' E 010°38'2 4.0
2019-Jun-14 03:31N 59°11' E 010°38'2 4.2
2019-Jun-14 03:00N 59°13' E 010°37'2 4.2
2019-Jun-14 02:31N 59°15' E 010°37'2 3.8
2019-Jun-14 02:00N 59°17' E 010°36'2 4.5
2019-Jun-14 01:30N 59°19' E 010°35'1 2.9
2019-Jun-14 01:00N 59°21' E 010°35'3 5.2
2019-Jun-14 00:30N 59°23' E 010°34'2 3.2
2019-Jun-14 00:00N 59°25' E 010°33'2 4.9
2019-Jun-13 23:30N 59°27' E 010°33'2 3.9
2019-Jun-13 23:00N 59°29' E 010°34'2 3.1
2019-Jun-13 22:30N 59°31' E 010°34'2 3.6
2019-Jun-13 22:00N 59°32' E 010°36'2 3.6
2019-Jun-13 21:30N 59°34' E 010°37'2 4.7
2019-Jun-13 21:01N 59°36' E 010°37'2 4.3
2019-Jun-13 20:31N 59°38' E 010°37'3 5.2
2019-Jun-13 20:00N 59°41' E 010°36'4 8.5
2019-Jun-13 19:30N 59°45' E 010°34'4 8.1
2019-Jun-13 19:01N 59°49' E 010°35'4 8.1
2019-Jun-13 18:30N 59°53' E 010°39'3 6.6
2019-Jun-13 18:00N 59°54' E 010°45'0 0.1
2019-Jun-13 17:29N 59°54' E 010°45'0 0.0
2019-Jun-13 16:59N 59°54' E 010°45'0 0.0
2019-Jun-13 16:30N 59°54' E 010°45'0 0.0
2019-Jun-13 16:00N 59°54' E 010°45'0 0.0
2019-Jun-13 15:28N 59°54' E 010°45'0 0.0
2019-Jun-13 14:58N 59°54' E 010°45'0 0.0
2019-Jun-13 14:28N 59°54' E 010°45'0 0.0
2019-Jun-13 13:59N 59°54' E 010°45'0 0.0
2019-Jun-13 13:29N 59°54' E 010°45'0 0.0
2019-Jun-13 12:59N 59°54' E 010°45'0 0.0
2019-Jun-13 12:27N 59°54' E 010°45'0 0.0
2019-Jun-13 12:00N 59°54' E 010°45'0 0.0
2019-Jun-13 11:30N 59°54' E 010°45'0 0.0
2019-Jun-13 10:58N 59°54' E 010°45'0 0.0
2019-Jun-13 10:28N 59°54' E 010°45'0 0.0
2019-Jun-13 09:58N 59°54' E 010°45'0 0.0
2019-Jun-13 09:29N 59°54' E 010°45'0 0.0
2019-Jun-13 08:59N 59°54' E 010°45'0 0.0
2019-Jun-13 08:29N 59°54' E 010°45'0 0.0
2019-Jun-13 08:00N 59°54' E 010°45'0 0.0
2019-Jun-13 07:30N 59°54' E 010°45'0 0.0
2019-Jun-13 07:00N 59°54' E 010°45'0 0.0
2019-Jun-13 06:28N 59°54' E 010°45'0 0.0
2019-Jun-13 05:58N 59°54' E 010°45'0 0.0
2019-Jun-13 05:28N 59°54' E 010°45'0 0.0
2019-Jun-13 04:59N 59°54' E 010°45'0 0.0
2019-Jun-13 04:29N 59°54' E 010°45'0 0.0
2019-Jun-13 03:59N 59°54' E 010°45'0 0.0
2019-Jun-13 03:27N 59°54' E 010°45'0 0.0
2019-Jun-13 03:00N 59°54' E 010°45'0 0.0
2019-Jun-13 02:30N 59°54' E 010°45'0 0.0
2019-Jun-13 01:58N 59°54' E 010°45'0 0.0
2019-Jun-13 01:28N 59°54' E 010°45'0 0.0
2019-Jun-13 00:58N 59°54' E 010°45'0 0.0
2019-Jun-13 00:29N 59°54' E 010°45'0 0.0
2019-Jun-12 23:59N 59°54' E 010°45'0 0.0
2019-Jun-12 23:29N 59°54' E 010°45'0 0.0
2019-Jun-12 22:57N 59°54' E 010°45'0 0.0
2019-Jun-12 22:30N 59°54' E 010°45'0 0.0
2019-Jun-12 22:00N 59°54' E 010°45'0 0.0
2019-Jun-12 21:28N 59°54' E 010°45'0 0.0
2019-Jun-12 20:58N 59°54' E 010°45'0 0.0
2019-Jun-12 20:28N 59°54' E 010°45'0 0.0
2019-Jun-12 20:00N 59°54' E 010°45'1 2.4
2019-Jun-12 19:30N 59°53' E 010°43'1 2.8
2019-Jun-12 19:00N 59°53' E 010°41'2 3.6
2019-Jun-12 18:30N 59°54' E 010°39'1 2.4
2019-Jun-12 18:00N 59°53' E 010°40'1 2.8
2019-Jun-12 17:29N 59°52' E 010°41'1 2.6
2019-Jun-12 17:00N 59°50' E 010°42'1 3.0
2019-Jun-12 16:31N 59°51' E 010°45'2 4.2
2019-Jun-12 16:00N 59°53' E 010°45'1 2.4
2019-Jun-12 15:30N 59°54' E 010°45'0 0.2
2019-Jun-12 14:58N 59°54' E 010°45'0 0.0
2019-Jun-12 14:28N 59°54' E 010°45'0 0.0
2019-Jun-12 13:58N 59°54' E 010°45'0 0.0
2019-Jun-12 13:29N 59°54' E 010°45'0 0.0
2019-Jun-12 12:59N 59°54' E 010°45'0 0.0
2019-Jun-12 12:29N 59°54' E 010°45'0 0.0
2019-Jun-12 12:00N 59°54' E 010°45'0 0.0
2019-Jun-12 11:29N 59°54' E 010°45'0 0.0
2019-Jun-12 10:59N 59°54' E 010°45'0 0.0
2019-Jun-12 10:30N 59°54' E 010°45'0 0.0
2019-Jun-12 10:00N 59°54' E 010°45'0 0.0
2019-Jun-12 09:30N 59°54' E 010°45'0 0.0
2019-Jun-12 08:59N 59°54' E 010°45'0 0.0
2019-Jun-12 08:30N 59°54' E 010°45'0 0.0
2019-Jun-12 08:00N 59°54' E 010°45'0 0.0
2019-Jun-12 07:30N 59°54' E 010°45'0 0.0
2019-Jun-12 07:00N 59°54' E 010°45'0 0.0
2019-Jun-12 06:30N 59°54' E 010°45'0 0.0
2019-Jun-12 05:59N 59°54' E 010°45'0 0.0
2019-Jun-12 05:29N 59°54' E 010°45'0 0.0
2019-Jun-12 05:00N 59°54' E 010°45'0 0.0
2019-Jun-12 04:30N 59°54' E 010°45'0 0.0
2019-Jun-12 03:58N 59°54' E 010°45'0 0.0
2019-Jun-12 03:30N 59°54' E 010°45'0 0.0
2019-Jun-12 03:00N 59°54' E 010°45'0 0.0
2019-Jun-12 02:30N 59°54' E 010°45'0 0.0
2019-Jun-12 01:30N 59°54' E 010°45'0 0.0
2019-Jun-12 01:00N 59°54' E 010°45'0 0.0
2019-Jun-12 00:29N 59°54' E 010°45'0 0.0
2019-Jun-11 23:59N 59°54' E 010°45'0 0.0
2019-Jun-11 23:30N 59°54' E 010°45'0 0.0
2019-Jun-11 23:00N 59°54' E 010°45'0 0.0
2019-Jun-11 22:30N 59°54' E 010°45'0 0.0
2019-Jun-11 22:00N 59°54' E 010°45'0 0.0
2019-Jun-11 21:30N 59°54' E 010°45'0 0.0
2019-Jun-11 21:00N 59°54' E 010°45'0 0.0
2019-Jun-11 20:30N 59°54' E 010°45'0 0.2
2019-Jun-11 20:00N 59°54' E 010°45'1 2.8
2019-Jun-11 19:30N 59°53' E 010°44'1 2.4
2019-Jun-11 19:00N 59°52' E 010°44'1 2.1
2019-Jun-11 18:30N 59°51' E 010°45'2 3.3
2019-Jun-11 17:59N 59°51' E 010°42'2 3.2
2019-Jun-11 17:30N 59°52' E 010°40'1 2.0
2019-Jun-11 17:00N 59°52' E 010°39'1 2.0
2019-Jun-11 16:30N 59°52' E 010°37'1 1.5
2019-Jun-11 16:00N 59°52' E 010°36'0 0.0
2019-Jun-11 15:30N 59°52' E 010°36'0 0.2
2019-Jun-11 15:00N 59°52' E 010°36'1 2.4
2019-Jun-11 14:30N 59°53' E 010°38'3 5.7
2019-Jun-11 14:00N 59°54' E 010°43'1 1.9
2019-Jun-11 13:30N 59°54' E 010°45'0 0.0
2019-Jun-11 13:00N 59°54' E 010°45'0 0.0
2019-Jun-11 12:30N 59°54' E 010°45'0 0.2
2019-Jun-11 12:00N 59°54' E 010°45'1 2.0
2019-Jun-11 11:30N 59°54' E 010°43'1 2.2
2019-Jun-11 11:00N 59°54' E 010°45'0 0.0
2019-Jun-11 10:30N 59°54' E 010°45'0 0.0
2019-Jun-11 09:59N 59°54' E 010°45'0 0.0
2019-Jun-11 09:30N 59°54' E 010°45'0 0.0
2019-Jun-11 09:00N 59°54' E 010°45'0 0.0
2019-Jun-11 08:30N 59°54' E 010°45'0 0.0
2019-Jun-11 08:00N 59°54' E 010°45'0 0.0
2019-Jun-11 07:28N 59°54' E 010°45'0 0.0
2019-Jun-11 06:58N 59°54' E 010°45'0 0.0
2019-Jun-11 06:30N 59°54' E 010°45'0 0.0
2019-Jun-11 06:00N 59°54' E 010°45'0 0.0
2019-Jun-11 05:30N 59°54' E 010°45'0 0.0
2019-Jun-11 05:00N 59°54' E 010°45'0 0.0
2019-Jun-11 04:30N 59°54' E 010°45'0 0.0
2019-Jun-11 04:00N 59°54' E 010°45'0 0.0
2019-Jun-11 03:30N 59°54' E 010°45'0 0.0
2019-Jun-11 02:58N 59°54' E 010°45'0 0.0
2019-Jun-11 02:30N 59°54' E 010°45'0 0.0
2019-Jun-11 02:00N 59°54' E 010°45'0 0.0
2019-Jun-11 01:30N 59°54' E 010°45'0 0.0
2019-Jun-11 01:00N 59°54' E 010°45'0 0.0
2019-Jun-11 00:30N 59°54' E 010°45'0 0.0
2019-Jun-10 23:59N 59°54' E 010°45'0 0.0
2019-Jun-10 23:30N 59°54' E 010°45'0 0.0
2019-Jun-10 23:00N 59°54' E 010°45'0 0.0
2019-Jun-10 22:30N 59°54' E 010°45'0 0.0
2019-Jun-10 22:00N 59°54' E 010°45'0 0.0
2019-Jun-10 21:30N 59°54' E 010°45'0 0.0
2019-Jun-10 21:00N 59°54' E 010°45'0 0.0
2019-Jun-10 20:30N 59°54' E 010°45'0 0.0
2019-Jun-10 20:00N 59°54' E 010°45'0 0.0
2019-Jun-10 19:30N 59°54' E 010°45'0 0.0
2019-Jun-10 19:00N 59°54' E 010°45'0 0.0
2019-Jun-10 18:30N 59°54' E 010°45'0 0.0
2019-Jun-10 18:00N 59°54' E 010°45'0 0.0
2019-Jun-10 17:30N 59°54' E 010°45'0 0.0
2019-Jun-10 17:00N 59°54' E 010°45'0 0.0
2019-Jun-10 16:30N 59°54' E 010°45'0 0.0
2019-Jun-10 16:00N 59°54' E 010°45'0 0.0
2019-Jun-10 15:30N 59°54' E 010°45'0 0.0
2019-Jun-10 15:00N 59°54' E 010°45'0 0.0
2019-Jun-10 14:29N 59°54' E 010°45'0 0.0
2019-Jun-10 13:59N 59°54' E 010°45'0 0.0
2019-Jun-10 13:30N 59°54' E 010°45'0 0.0
2019-Jun-10 13:00N 59°54' E 010°45'0 0.0
2019-Jun-10 12:30N 59°54' E 010°45'0 0.0
2019-Jun-10 12:00N 59°54' E 010°45'0 0.0
2019-Jun-10 11:30N 59°54' E 010°45'0 0.0
2019-Jun-10 11:00N 59°54' E 010°45'0 0.0
2019-Jun-10 10:30N 59°54' E 010°45'0 0.0
2019-Jun-10 10:00N 59°54' E 010°45'0 0.0
2019-Jun-10 09:30N 59°54' E 010°45'0 0.0
2019-Jun-10 08:58N 59°54' E 010°45'0 0.0
2019-Jun-10 08:29N 59°54' E 010°45'0 0.0
2019-Jun-10 08:00N 59°54' E 010°45'0 0.0
2019-Jun-10 07:29N 59°54' E 010°45'0 0.0
2019-Jun-10 06:58N 59°54' E 010°45'0 0.0
2019-Jun-10 06:30N 59°54' E 010°45'0 0.0
2019-Jun-10 06:00N 59°54' E 010°45'0 0.0
2019-Jun-10 05:30N 59°54' E 010°45'0 0.0
2019-Jun-10 05:00N 59°54' E 010°45'0 0.0
2019-Jun-10 04:30N 59°54' E 010°45'0 0.0
2019-Jun-10 04:00N 59°54' E 010°45'0 0.0
2019-Jun-10 03:30N 59°54' E 010°45'0 0.0
2019-Jun-10 03:00N 59°54' E 010°45'0 0.0
2019-Jun-10 02:28N 59°54' E 010°45'0 0.0
2019-Jun-10 02:00N 59°54' E 010°45'0 0.0
2019-Jun-10 01:30N 59°54' E 010°45'0 0.0
2019-Jun-10 00:59N 59°54' E 010°45'0 0.0
2019-Jun-10 00:30N 59°54' E 010°45'0 0.0
2019-Jun-10 00:00N 59°54' E 010°45'0 0.0
2019-Jun-09 23:30N 59°54' E 010°45'0 0.0
2019-Jun-09 23:00N 59°54' E 010°45'0 0.0
2019-Jun-09 22:30N 59°54' E 010°45'0 0.0
2019-Jun-09 22:00N 59°54' E 010°45'0 0.0
2019-Jun-09 21:30N 59°54' E 010°45'0 0.0
2019-Jun-09 21:00N 59°54' E 010°45'0 0.0
2019-Jun-09 20:30N 59°54' E 010°45'0 0.0
2019-Jun-09 20:00N 59°54' E 010°45'0 0.0
2019-Jun-09 19:30N 59°54' E 010°45'0 0.0
2019-Jun-09 19:00N 59°54' E 010°45'0 0.0
2019-Jun-09 18:30N 59°54' E 010°45'0 0.0
2019-Jun-09 18:00N 59°54' E 010°45'0 0.0
2019-Jun-09 17:29N 59°54' E 010°45'0 0.0
2019-Jun-09 16:58N 59°54' E 010°45'0 0.0
2019-Jun-09 16:30N 59°54' E 010°45'0 0.0
2019-Jun-09 16:00N 59°54' E 010°45'0 0.0
2019-Jun-09 15:28N 59°54' E 010°45'0 0.0
2019-Jun-09 15:00N 59°54' E 010°45'0 0.0
2019-Jun-09 14:29N 59°54' E 010°45'0 0.0
2019-Jun-09 14:00N 59°54' E 010°45'0 0.0
2019-Jun-09 13:30N 59°54' E 010°45'0 0.5
2019-Jun-09 12:59N 59°54' E 010°45'2 4.2
2019-Jun-09 12:30N 59°53' E 010°41'2 4.0
2019-Jun-09 12:00N 59°51' E 010°42'1 1.3
2019-Jun-09 11:30N 59°52' E 010°43'1 2.9
2019-Jun-09 11:00N 59°53' E 010°44'1 3.1
2019-Jun-09 10:31N 59°54' E 010°45'0 0.1
2019-Jun-09 09:58N 59°54' E 010°45'0 0.0
2019-Jun-09 09:29N 59°54' E 010°45'0 0.0
2019-Jun-09 08:59N 59°54' E 010°45'0 0.0
2019-Jun-09 08:29N 59°54' E 010°45'0 0.0
2019-Jun-09 08:00N 59°54' E 010°45'0 0.0
2019-Jun-09 07:30N 59°54' E 010°45'0 0.0
2019-Jun-09 07:00N 59°54' E 010°45'0 0.0
2019-Jun-09 06:30N 59°54' E 010°45'0 0.0
2019-Jun-09 06:00N 59°54' E 010°45'0 0.0
2019-Jun-09 05:30N 59°54' E 010°45'0 0.0
2019-Jun-09 05:00N 59°54' E 010°45'0 0.0
2019-Jun-09 04:00N 59°54' E 010°45'0 0.0
2019-Jun-09 03:30N 59°54' E 010°45'0 0.0
2019-Jun-09 03:00N 59°54' E 010°45'0 0.0
2019-Jun-09 02:30N 59°54' E 010°45'0 0.0
2019-Jun-09 02:00N 59°54' E 010°45'0 0.0
2019-Jun-09 01:30N 59°54' E 010°45'0 0.0
2019-Jun-09 01:00N 59°54' E 010°45'0 0.0
2019-Jun-09 00:29N 59°54' E 010°45'0 0.0
2019-Jun-09 00:00N 59°54' E 010°45'0 0.0
2019-Jun-08 23:29N 59°54' E 010°45'0 0.0
2019-Jun-08 23:00N 59°54' E 010°45'0 0.0
2019-Jun-08 22:30N 59°54' E 010°45'0 0.0
2019-Jun-08 22:00N 59°54' E 010°45'0 0.0
2019-Jun-08 21:30N 59°54' E 010°45'0 0.0
2019-Jun-08 21:00N 59°54' E 010°45'0 0.0
2019-Jun-08 20:30N 59°54' E 010°45'0 0.0
2019-Jun-08 20:00N 59°54' E 010°45'2 3.5
2019-Jun-08 19:30N 59°54' E 010°42'2 3.7
2019-Jun-08 19:00N 59°52' E 010°41'2 3.9
2019-Jun-08 18:30N 59°50' E 010°42'1 2.8
2019-Jun-08 17:58N 59°49' E 010°44'2 3.9
2019-Jun-08 17:29N 59°51' E 010°46'2 3.2
2019-Jun-08 16:59N 59°52' E 010°44'2 3.6
2019-Jun-08 16:30N 59°54' E 010°45'0 0.5
2019-Jun-08 15:58N 59°54' E 010°45'0 0.0
2019-Jun-08 15:29N 59°54' E 010°45'0 0.0
2019-Jun-08 14:59N 59°54' E 010°45'0 0.0
2019-Jun-08 14:29N 59°54' E 010°45'0 0.0
2019-Jun-08 14:00N 59°54' E 010°45'0 0.0
2019-Jun-08 13:30N 59°54' E 010°45'0 0.0
2019-Jun-08 13:00N 59°54' E 010°45'0 0.0
2019-Jun-08 12:28N 59°54' E 010°45'0 0.0
2019-Jun-08 11:58N 59°54' E 010°45'0 0.0
2019-Jun-08 11:28N 59°54' E 010°45'0 0.0
2019-Jun-08 10:59N 59°54' E 010°45'0 0.0
2019-Jun-08 10:29N 59°54' E 010°45'0 0.0
2019-Jun-08 09:59N 59°54' E 010°45'0 0.0
2019-Jun-08 09:30N 59°54' E 010°45'0 0.0
2019-Jun-08 09:00N 59°54' E 010°45'0 0.0
2019-Jun-08 08:30N 59°54' E 010°45'0 0.0
2019-Jun-08 07:58N 59°54' E 010°45'0 0.0
2019-Jun-08 07:28N 59°54' E 010°45'0 0.0
2019-Jun-08 06:58N 59°54' E 010°45'0 0.0
2019-Jun-08 06:29N 59°54' E 010°45'0 0.0
2019-Jun-08 05:59N 59°54' E 010°45'0 0.0
2019-Jun-08 05:29N 59°54' E 010°45'0 0.0
2019-Jun-08 05:00N 59°54' E 010°45'0 0.0
2019-Jun-08 04:30N 59°54' E 010°45'0 0.0
2019-Jun-08 04:00N 59°54' E 010°45'0 0.0
2019-Jun-08 03:28N 59°54' E 010°45'0 0.0
2019-Jun-08 02:58N 59°54' E 010°45'0 0.0
2019-Jun-08 02:28N 59°54' E 010°45'0 0.0
2019-Jun-08 01:59N 59°54' E 010°45'0 0.0
2019-Jun-08 01:29N 59°54' E 010°45'0 0.0
2019-Jun-08 00:59N 59°54' E 010°45'0 0.0
2019-Jun-08 00:30N 59°54' E 010°45'0 0.0
2019-Jun-08 00:00N 59°54' E 010°45'0 0.0
2019-Jun-07 23:30N 59°54' E 010°45'0 0.0
2019-Jun-07 22:58N 59°54' E 010°45'0 0.0
2019-Jun-07 22:28N 59°54' E 010°45'0 0.0
2019-Jun-07 21:58N 59°54' E 010°45'0 0.0
2019-Jun-07 21:29N 59°54' E 010°45'0 0.0
2019-Jun-07 20:59N 59°54' E 010°45'0 0.0
2019-Jun-07 20:29N 59°54' E 010°45'0 0.7
2019-Jun-07 20:00N 59°54' E 010°45'2 3.8
2019-Jun-07 19:31N 59°53' E 010°41'1 2.1
2019-Jun-07 19:00N 59°52' E 010°41'3 5.1
2019-Jun-07 18:30N 59°50' E 010°43'1 2.8
2019-Jun-07 18:00N 59°50' E 010°46'1 2.5
2019-Jun-07 17:30N 59°51' E 010°45'1 2.7
2019-Jun-07 17:00N 59°53' E 010°45'1 2.4
2019-Jun-07 16:30N 59°54' E 010°45'0 0.6
2019-Jun-07 16:00N 59°54' E 010°45'0 0.0
2019-Jun-07 15:30N 59°54' E 010°45'0 0.0
2019-Jun-07 15:00N 59°54' E 010°45'0 0.0
2019-Jun-07 14:28N 59°54' E 010°45'0 0.0
2019-Jun-07 13:58N 59°54' E 010°45'0 0.0
2019-Jun-07 13:28N 59°54' E 010°45'0 0.0
2019-Jun-07 12:59N 59°54' E 010°45'0 0.0
2019-Jun-07 12:29N 59°54' E 010°45'0 0.0
2019-Jun-07 11:59N 59°54' E 010°45'0 0.0
2019-Jun-07 11:30N 59°54' E 010°45'0 0.0
2019-Jun-07 11:00N 59°54' E 010°45'0 0.0
2019-Jun-07 10:30N 59°54' E 010°45'0 0.0
2019-Jun-07 09:58N 59°54' E 010°45'0 0.0
2019-Jun-07 09:28N 59°54' E 010°45'0 0.0
2019-Jun-07 08:58N 59°54' E 010°45'0 1.0
2019-Jun-07 08:29N 59°54' E 010°44'0 0.0
2019-Jun-07 08:00N 59°54' E 010°44'0 0.0
2019-Jun-07 07:30N 59°54' E 010°44'0 0.0
2019-Jun-07 07:00N 59°54' E 010°44'0 0.0
2019-Jun-07 06:28N 59°54' E 010°44'0 0.0
2019-Jun-07 05:58N 59°54' E 010°44'0 0.0
2019-Jun-07 05:28N 59°54' E 010°44'0 0.0
2019-Jun-07 04:59N 59°54' E 010°44'0 0.0
2019-Jun-07 04:29N 59°54' E 010°44'0 0.0
2019-Jun-07 03:59N 59°54' E 010°44'0 0.0
2019-Jun-07 03:30N 59°54' E 010°44'0 0.0
2019-Jun-07 02:57N 59°54' E 010°44'0 0.0
2019-Jun-07 02:30N 59°54' E 010°44'0 0.0
2019-Jun-07 01:58N 59°54' E 010°44'0 0.0
2019-Jun-07 01:28N 59°54' E 010°44'0 0.0
2019-Jun-07 00:58N 59°54' E 010°44'0 0.0
2019-Jun-07 00:29N 59°54' E 010°44'0 0.0
2019-Jun-06 23:59N 59°54' E 010°44'0 0.0
2019-Jun-06 23:29N 59°54' E 010°44'0 0.0
2019-Jun-06 23:00N 59°54' E 010°44'  

Dump ship's entire track history